createdAt,value
2022-11-14T00:04:29.503Z,93
2022-11-14T00:09:26.007Z,93
2022-11-14T00:14:26.125Z,93
2022-11-14T00:19:26.352Z,93
2022-11-14T00:24:25.482Z,93
2022-11-14T00:29:26.018Z,93
2022-11-14T00:34:25.644Z,93
2022-11-14T00:39:25.978Z,93
2022-11-14T00:44:26.339Z,93
2022-11-14T00:49:25.585Z,93
2022-11-14T00:54:25.839Z,93
2022-11-14T00:59:26.037Z,93
2022-11-14T01:04:25.423Z,93
2022-11-14T01:09:26.045Z,93
2022-11-14T01:14:25.434Z,93
2022-11-14T01:19:25.730Z,93
2022-11-14T01:24:26.347Z,93
2022-11-14T01:29:25.537Z,93
2022-11-14T01:34:25.996Z,94
2022-11-14T01:39:26.307Z,94
2022-11-14T01:44:25.589Z,94
2022-11-14T01:49:25.838Z,94
2022-11-14T01:54:26.131Z,94
2022-11-14T01:59:26.354Z,94
2022-11-14T02:04:25.389Z,94
2022-11-14T02:09:25.729Z,94
2022-11-14T02:14:26.403Z,94
2022-11-14T02:19:26.056Z,94
2022-11-14T02:24:25.590Z,94
2022-11-14T02:29:25.843Z,94
2022-11-14T02:34:26.073Z,94
2022-11-14T02:39:26.727Z,94
2022-11-14T02:44:25.981Z,94
2022-11-14T02:49:25.522Z,94
2022-11-14T02:54:25.697Z,94
2022-11-14T02:59:26.077Z,94
2022-11-14T03:04:25.875Z,94
2022-11-14T03:09:25.740Z,94
2022-11-14T03:14:25.796Z,94
2022-11-14T03:19:25.441Z,94
2022-11-14T03:24:26.386Z,94
2022-11-14T03:29:26.043Z,94
2022-11-14T03:34:26.092Z,94
2022-11-14T03:39:26.010Z,94
2022-11-14T03:44:26.006Z,94
2022-11-14T03:49:25.665Z,94
2022-11-14T03:54:25.952Z,94
2022-11-14T03:59:25.653Z,94
2022-11-14T04:04:25.676Z,94
2022-11-14T04:09:26.207Z,94
2022-11-14T04:14:25.967Z,94
2022-11-14T04:19:26.375Z,94
2022-11-14T04:24:25.643Z,94
2022-11-14T04:29:25.838Z,94
2022-11-14T04:34:26.271Z,94
2022-11-14T04:39:25.975Z,94
2022-11-14T04:44:26.300Z,94
2022-11-14T04:49:25.478Z,94
2022-11-14T04:54:25.873Z,94
2022-11-14T04:59:26.027Z,94
2022-11-14T05:04:26.322Z,94
2022-11-14T05:09:25.722Z,94
2022-11-14T05:14:26.249Z,94
2022-11-14T05:19:25.799Z,94
2022-11-14T05:24:26.031Z,94
2022-11-14T05:29:26.247Z,94
2022-11-14T05:34:25.706Z,94
2022-11-14T05:39:26.070Z,94
2022-11-14T05:44:26.505Z,94
2022-11-14T05:49:26.403Z,94
2022-11-14T05:54:25.968Z,94
2022-11-14T05:59:26.185Z,94
2022-11-14T06:04:25.705Z,94
2022-11-14T06:09:26.320Z,94
2022-11-14T06:14:25.741Z,94
2022-11-14T06:19:26.078Z,94
2022-11-14T06:24:25.973Z,94
2022-11-14T06:29:29.105Z,94
2022-11-14T06:34:25.820Z,94
2022-11-14T06:39:26.212Z,94
2022-11-14T06:44:29.669Z,94
2022-11-14T06:49:26.717Z,94
2022-11-14T06:54:26.024Z,94
2022-11-14T06:59:26.216Z,94
2022-11-14T07:04:26.443Z,94
2022-11-14T07:09:26.315Z,94
2022-11-14T07:14:26.197Z,94
2022-11-14T07:19:26.494Z,94
2022-11-14T07:24:26.020Z,94
2022-11-14T07:29:26.204Z,94
2022-11-14T07:34:26.117Z,94
2022-11-14T07:39:26.035Z,94
2022-11-14T07:44:26.115Z,94
2022-11-14T07:49:26.320Z,94
2022-11-14T07:54:25.811Z,94
2022-11-14T07:59:25.884Z,94
2022-11-14T08:04:26.148Z,94
2022-11-14T08:09:26.547Z,94
2022-11-14T08:14:25.666Z,94
2022-11-14T08:19:26.433Z,94
2022-11-14T08:24:25.688Z,94
2022-11-14T08:29:25.867Z,94
2022-11-14T08:34:26.464Z,94
2022-11-14T08:39:26.054Z,94
2022-11-14T08:44:26.233Z,94
2022-11-14T08:49:26.688Z,94
2022-11-14T08:54:25.801Z,95
2022-11-14T08:59:26.504Z,95
2022-11-14T09:04:26.358Z,95
2022-11-14T09:09:26.822Z,95
2022-11-14T09:14:25.989Z,95
2022-11-14T09:19:26.358Z,95
2022-11-14T09:24:25.730Z,95
2022-11-14T09:29:26.023Z,95
2022-11-14T09:34:26.267Z,95
2022-11-14T09:39:26.544Z,95
2022-11-14T09:44:25.768Z,95
2022-11-14T09:49:25.989Z,95
2022-11-14T09:54:26.346Z,95
2022-11-14T09:59:26.624Z,95
2022-11-14T10:04:25.910Z,95
2022-11-14T10:09:30.423Z,95
2022-11-14T10:14:26.137Z,94
2022-11-14T10:19:26.652Z,94
2022-11-14T10:24:26.019Z,94
2022-11-14T10:29:26.435Z,94
2022-11-14T10:34:26.615Z,94
2022-11-14T10:39:25.888Z,94
2022-11-14T10:44:25.949Z,94
2022-11-14T10:49:26.298Z,94
2022-11-14T10:54:26.599Z,94
2022-11-14T10:59:25.965Z,94
2022-11-14T11:04:26.214Z,93
2022-11-14T11:09:25.971Z,93
2022-11-14T11:14:26.478Z,93
2022-11-14T11:19:26.921Z,93
2022-11-14T11:24:25.781Z,92
2022-11-14T11:29:26.223Z,92
2022-11-14T11:34:26.636Z,92
2022-11-14T11:39:25.933Z,92
2022-11-14T11:44:26.326Z,91
2022-11-14T11:49:26.758Z,91
2022-11-14T11:54:26.042Z,89
2022-11-14T11:59:26.299Z,89
2022-11-14T12:04:26.584Z,88
2022-11-14T12:09:42.574Z,88
2022-11-14T12:14:25.898Z,87
2022-11-14T12:19:26.422Z,87
2022-11-14T12:24:26.709Z,86
2022-11-14T12:29:26.158Z,86
2022-11-14T12:34:26.518Z,85
2022-11-14T12:39:26.220Z,85
2022-11-14T12:44:26.221Z,84
2022-11-14T12:49:29.263Z,84
2022-11-14T12:54:26.533Z,84
2022-11-14T12:59:26.735Z,84
2022-11-14T13:04:25.951Z,84
2022-11-14T13:09:26.282Z,84
2022-11-14T13:14:26.509Z,85
2022-11-14T13:19:26.168Z,85
2022-11-14T13:24:26.401Z,84
2022-11-14T13:29:26.679Z,84
2022-11-14T13:34:26.146Z,84
2022-11-14T13:39:26.373Z,84
2022-11-14T13:44:26.833Z,85
2022-11-14T13:49:26.010Z,85
2022-11-14T13:54:26.300Z,85
2022-11-14T13:59:26.510Z,85
2022-11-14T14:04:25.915Z,85
2022-11-14T14:09:26.205Z,85
2022-11-14T14:14:26.041Z,85
2022-11-14T14:19:26.544Z,85
2022-11-14T14:24:26.728Z,85
2022-11-14T14:29:25.860Z,85
2022-11-14T14:34:26.399Z,85
2022-11-14T14:39:26.185Z,85
2022-11-14T14:44:26.654Z,85
2022-11-14T14:49:26.088Z,85
2022-11-14T14:54:26.408Z,85
2022-11-14T14:59:26.778Z,85
2022-11-14T15:04:26.318Z,86
2022-11-14T15:09:26.652Z,86
2022-11-14T15:14:26.038Z,86
2022-11-14T15:19:26.572Z,86
2022-11-14T15:24:26.752Z,87
2022-11-14T15:29:26.193Z,87
2022-11-14T15:34:26.299Z,87
2022-11-14T15:39:26.221Z,87
2022-11-14T15:44:26.062Z,88
2022-11-14T15:49:25.864Z,88
2022-11-14T15:54:26.395Z,88
2022-11-14T15:59:26.158Z,88
2022-11-14T16:04:26.540Z,89
2022-11-14T16:09:26.022Z,89
2022-11-14T16:14:26.283Z,89
2022-11-14T16:19:26.572Z,89
2022-11-14T16:24:31.180Z,90
2022-11-14T16:29:26.023Z,90
2022-11-14T16:34:26.394Z,90
2022-11-14T16:39:26.901Z,90
2022-11-14T16:44:26.545Z,91
2022-11-14T16:49:26.026Z,91
2022-11-14T16:54:26.810Z,91
2022-11-14T16:59:26.945Z,91
2022-11-14T17:04:26.191Z,92
2022-11-14T17:09:26.583Z,92
2022-11-14T17:14:25.953Z,92
2022-11-14T17:19:26.436Z,92
2022-11-14T17:24:31.165Z,92
2022-11-14T17:29:26.810Z,92
2022-11-14T17:34:26.273Z,92
2022-11-14T17:39:26.959Z,92
2022-11-14T17:44:26.115Z,92
2022-11-14T17:49:26.304Z,92
2022-11-14T17:54:26.448Z,93
2022-11-14T17:59:26.552Z,93
2022-11-14T18:04:26.780Z,93
2022-11-14T18:09:26.926Z,93
2022-11-14T18:14:26.144Z,93
2022-11-14T18:19:26.438Z,93
2022-11-14T18:24:26.625Z,93
2022-11-14T18:29:26.935Z,93
2022-11-14T18:34:26.083Z,93
2022-11-14T18:39:26.465Z,93
2022-11-14T18:44:26.661Z,94
2022-11-14T18:49:26.723Z,94
2022-11-14T18:54:26.867Z,94
2022-11-14T18:59:26.546Z,94
2022-11-14T19:04:26.933Z,94
2022-11-14T19:09:26.692Z,94
2022-11-14T19:14:26.887Z,94
2022-11-14T19:19:26.553Z,94
2022-11-14T19:24:26.816Z,95
2022-11-14T19:29:26.086Z,95
2022-11-14T19:34:26.201Z,95
2022-11-14T19:39:26.637Z,95
2022-11-14T19:44:26.964Z,95
2022-11-14T19:49:26.283Z,95
2022-11-14T19:54:26.838Z,95
2022-11-14T19:59:26.582Z,95
2022-11-14T20:04:26.816Z,95
2022-11-14T20:09:26.114Z,95
2022-11-14T20:14:26.533Z,95
2022-11-14T20:19:26.871Z,95
2022-11-14T20:24:27.143Z,95
2022-11-14T20:29:26.591Z,95
2022-11-14T20:34:26.683Z,95
2022-11-14T20:39:27.024Z,95
2022-11-14T20:44:26.352Z,95
2022-11-14T20:49:26.657Z,95
2022-11-14T20:54:26.484Z,95
2022-11-14T20:59:26.556Z,95
2022-11-14T21:04:26.602Z,96
2022-11-14T21:09:26.283Z,96
2022-11-14T21:14:27.089Z,96
2022-11-14T21:19:26.167Z,96
2022-11-14T21:24:26.487Z,96
2022-11-14T21:29:26.874Z,96
2022-11-14T21:34:26.655Z,96
2022-11-14T21:39:27.036Z,96
2022-11-14T21:44:26.273Z,96
2022-11-14T21:49:26.588Z,96
2022-11-14T21:54:26.852Z,96
2022-11-14T21:59:27.203Z,96
2022-11-14T22:04:26.477Z,96
2022-11-14T22:09:26.510Z,96
2022-11-14T22:14:26.198Z,96
2022-11-14T22:19:26.386Z,96
2022-11-14T22:24:26.790Z,96
2022-11-14T22:29:26.933Z,96
2022-11-14T22:34:26.912Z,96
2022-11-14T22:39:26.898Z,96
2022-11-14T22:44:27.050Z,96
2022-11-14T22:49:26.270Z,96
2022-11-14T22:54:26.686Z,96
2022-11-14T22:59:26.900Z,96
2022-11-14T23:04:26.402Z,96
2022-11-14T23:09:26.983Z,96
2022-11-14T23:14:27.124Z,96
2022-11-14T23:19:26.482Z,96
2022-11-14T23:24:26.874Z,96
2022-11-14T23:29:27.141Z,96
2022-11-14T23:34:26.964Z,96
2022-11-14T23:39:26.573Z,96
2022-11-14T23:44:26.575Z,97
2022-11-14T23:49:27.581Z,97
2022-11-14T23:54:26.474Z,97
2022-11-14T23:59:26.602Z,97
